sensor_id;sensor_type;location;lat;lon;timestamp;P1;durP1;ratioP1;P2;durP2;ratioP2
26014;SDS011;13793;55.388;37.844;2023-04-24T00:02:24;52.30;;;23.37;;
26014;SDS011;13793;55.388;37.844;2023-04-24T00:04:55;48.63;;;22.43;;
26014;SDS011;13793;55.388;37.844;2023-04-24T00:07:29;50.67;;;21.77;;
26014;SDS011;13793;55.388;37.844;2023-04-24T00:09:59;54.87;;;21.47;;
26014;SDS011;13793;55.388;37.844;2023-04-24T00:12:30;53.37;;;21.73;;
26014;SDS011;13793;55.388;37.844;2023-04-24T00:15:02;45.57;;;21.93;;
26014;SDS011;13793;55.388;37.844;2023-04-24T00:17:33;41.70;;;20.67;;
26014;SDS011;13793;55.388;37.844;2023-04-24T00:20:04;42.40;;;21.23;;
26014;SDS011;13793;55.388;37.844;2023-04-24T00:22:35;42.37;;;20.67;;
26014;SDS011;13793;55.388;37.844;2023-04-24T00:25:06;46.37;;;21.00;;
26014;SDS011;13793;55.388;37.844;2023-04-24T00:27:37;43.40;;;21.10;;
26014;SDS011;13793;55.388;37.844;2023-04-24T00:30:08;40.83;;;20.23;;
26014;SDS011;13793;55.388;37.844;2023-04-24T00:32:39;42.70;;;20.20;;
26014;SDS011;13793;55.388;37.844;2023-04-24T00:35:10;43.27;;;20.37;;
26014;SDS011;13793;55.388;37.844;2023-04-24T00:37:40;43.00;;;20.57;;
26014;SDS011;13793;55.388;37.844;2023-04-24T00:40:11;40.60;;;20.50;;
26014;SDS011;13793;55.388;37.844;2023-04-24T00:42:42;38.90;;;20.03;;
26014;SDS011;13793;55.388;37.844;2023-04-24T00:45:13;39.17;;;19.43;;
26014;SDS011;13793;55.388;37.844;2023-04-24T00:47:43;38.63;;;19.60;;
26014;SDS011;13793;55.388;37.844;2023-04-24T00:50:15;38.23;;;19.10;;
26014;SDS011;13793;55.388;37.844;2023-04-24T00:52:46;42.27;;;19.53;;
26014;SDS011;13793;55.388;37.844;2023-04-24T00:55:17;39.53;;;19.33;;
26014;SDS011;13793;55.388;37.844;2023-04-24T00:57:48;38.53;;;19.33;;
26014;SDS011;13793;55.388;37.844;2023-04-24T01:00:19;36.00;;;18.23;;
26014;SDS011;13793;55.388;37.844;2023-04-24T01:02:50;36.43;;;18.07;;
26014;SDS011;13793;55.388;37.844;2023-04-24T01:05:21;39.03;;;19.17;;
26014;SDS011;13793;55.388;37.844;2023-04-24T01:07:52;34.00;;;17.50;;
26014;SDS011;13793;55.388;37.844;2023-04-24T01:10:23;33.97;;;18.30;;
26014;SDS011;13793;55.388;37.844;2023-04-24T01:12:54;35.00;;;18.23;;
26014;SDS011;13793;55.388;37.844;2023-04-24T01:15:25;33.50;;;18.47;;
26014;SDS011;13793;55.388;37.844;2023-04-24T01:17:56;42.47;;;18.77;;
26014;SDS011;13793;55.388;37.844;2023-04-24T01:20:26;39.83;;;18.70;;
26014;SDS011;13793;55.388;37.844;2023-04-24T01:22:58;34.97;;;18.60;;
26014;SDS011;13793;55.388;37.844;2023-04-24T01:25:29;36.17;;;18.87;;
26014;SDS011;13793;55.388;37.844;2023-04-24T01:28:00;41.03;;;19.37;;
26014;SDS011;13793;55.388;37.844;2023-04-24T01:30:32;41.37;;;18.43;;
26014;SDS011;13793;55.388;37.844;2023-04-24T01:33:03;35.57;;;19.10;;
26014;SDS011;13793;55.388;37.844;2023-04-24T01:35:33;33.40;;;18.87;;
26014;SDS011;13793;55.388;37.844;2023-04-24T01:38:04;36.70;;;18.67;;
26014;SDS011;13793;55.388;37.844;2023-04-24T01:40:35;37.90;;;19.20;;
26014;SDS011;13793;55.388;37.844;2023-04-24T01:43:05;36.53;;;18.07;;
26014;SDS011;13793;55.388;37.844;2023-04-24T01:45:36;34.80;;;17.67;;
26014;SDS011;13793;55.388;37.844;2023-04-24T01:48:06;33.13;;;17.63;;
26014;SDS011;13793;55.388;37.844;2023-04-24T01:50:37;37.07;;;17.97;;
26014;SDS011;13793;55.388;37.844;2023-04-24T01:53:07;33.17;;;17.60;;
26014;SDS011;13793;55.388;37.844;2023-04-24T01:55:38;36.53;;;17.87;;
26014;SDS011;13793;55.388;37.844;2023-04-24T01:58:08;36.27;;;18.63;;
26014;SDS011;13793;55.388;37.844;2023-04-24T02:00:41;36.53;;;18.43;;
26014;SDS011;13793;55.388;37.844;2023-04-24T02:03:11;36.17;;;17.03;;
26014;SDS011;13793;55.388;37.844;2023-04-24T02:05:43;36.03;;;17.97;;
26014;SDS011;13793;55.388;37.844;2023-04-24T02:08:14;31.70;;;18.07;;
26014;SDS011;13793;55.388;37.844;2023-04-24T02:10:45;29.70;;;17.00;;
26014;SDS011;13793;55.388;37.844;2023-04-24T02:13:15;33.07;;;16.43;;
26014;SDS011;13793;55.388;37.844;2023-04-24T02:15:46;29.90;;;15.87;;
26014;SDS011;13793;55.388;37.844;2023-04-24T02:18:18;34.47;;;16.53;;
26014;SDS011;13793;55.388;37.844;2023-04-24T02:20:48;29.47;;;15.73;;
26014;SDS011;13793;55.388;37.844;2023-04-24T02:23:19;31.13;;;16.57;;
26014;SDS011;13793;55.388;37.844;2023-04-24T02:25:49;29.83;;;16.20;;
26014;SDS011;13793;55.388;37.844;2023-04-24T02:28:21;24.93;;;15.67;;
26014;SDS011;13793;55.388;37.844;2023-04-24T02:30:52;28.40;;;16.20;;
26014;SDS011;13793;55.388;37.844;2023-04-24T02:33:23;29.40;;;15.63;;
26014;SDS011;13793;55.388;37.844;2023-04-24T02:35:53;27.23;;;15.87;;
26014;SDS011;13793;55.388;37.844;2023-04-24T02:38:24;26.77;;;15.77;;
26014;SDS011;13793;55.388;37.844;2023-04-24T02:40:54;29.87;;;16.30;;
26014;SDS011;13793;55.388;37.844;2023-04-24T02:43:27;28.00;;;16.10;;
26014;SDS011;13793;55.388;37.844;2023-04-24T02:45:57;32.40;;;16.63;;
26014;SDS011;13793;55.388;37.844;2023-04-24T02:48:28;25.77;;;15.40;;
26014;SDS011;13793;55.388;37.844;2023-04-24T02:50:59;28.00;;;15.77;;
26014;SDS011;13793;55.388;37.844;2023-04-24T02:53:29;28.00;;;14.97;;
26014;SDS011;13793;55.388;37.844;2023-04-24T02:55:59;32.77;;;15.93;;
26014;SDS011;13793;55.388;37.844;2023-04-24T02:58:30;29.53;;;15.57;;
26014;SDS011;13793;55.388;37.844;2023-04-24T03:01:00;25.13;;;15.27;;
26014;SDS011;13793;55.388;37.844;2023-04-24T03:03:31;26.67;;;15.00;;
26014;SDS011;13793;55.388;37.844;2023-04-24T03:06:02;25.80;;;15.37;;
26014;SDS011;13793;55.388;37.844;2023-04-24T03:08:34;26.63;;;15.07;;
26014;SDS011;13793;55.388;37.844;2023-04-24T03:11:05;26.53;;;14.47;;
26014;SDS011;13793;55.388;37.844;2023-04-24T03:13:36;26.77;;;15.20;;
26014;SDS011;13793;55.388;37.844;2023-04-24T03:16:06;27.50;;;15.57;;
26014;SDS011;13793;55.388;37.844;2023-04-24T03:18:37;30.00;;;15.40;;
26014;SDS011;13793;55.388;37.844;2023-04-24T03:21:08;26.50;;;14.97;;
26014;SDS011;13793;55.388;37.844;2023-04-24T03:23:39;28.73;;;15.00;;
26014;SDS011;13793;55.388;37.844;2023-04-24T03:26:11;28.23;;;15.43;;
26014;SDS011;13793;55.388;37.844;2023-04-24T03:28:43;29.43;;;15.30;;
26014;SDS011;13793;55.388;37.844;2023-04-24T03:31:13;26.60;;;13.67;;
26014;SDS011;13793;55.388;37.844;2023-04-24T03:33:45;24.50;;;14.93;;
26014;SDS011;13793;55.388;37.844;2023-04-24T03:36:15;28.03;;;15.43;;
26014;SDS011;13793;55.388;37.844;2023-04-24T03:38:47;24.13;;;14.90;;
26014;SDS011;13793;55.388;37.844;2023-04-24T03:41:23;29.43;;;15.60;;
26014;SDS011;13793;55.388;37.844;2023-04-24T03:44:13;24.67;;;15.30;;
26014;SDS011;13793;55.388;37.844;2023-04-24T03:46:44;23.20;;;15.03;;
26014;SDS011;13793;55.388;37.844;2023-04-24T03:49:15;27.90;;;15.03;;
26014;SDS011;13793;55.388;37.844;2023-04-24T03:51:46;26.87;;;16.40;;
26014;SDS011;13793;55.388;37.844;2023-04-24T03:54:21;25.83;;;14.50;;
26014;SDS011;13793;55.388;37.844;2023-04-24T03:56:52;25.40;;;15.03;;
26014;SDS011;13793;55.388;37.844;2023-04-24T03:59:24;21.77;;;14.73;;
26014;SDS011;13793;55.388;37.844;2023-04-24T04:01:56;20.53;;;13.33;;
26014;SDS011;13793;55.388;37.844;2023-04-24T04:04:27;19.17;;;12.03;;
26014;SDS011;13793;55.388;37.844;2023-04-24T04:06:57;17.50;;;11.77;;
26014;SDS011;13793;55.388;37.844;2023-04-24T04:09:32;19.07;;;11.83;;
26014;SDS011;13793;55.388;37.844;2023-04-24T04:12:02;15.03;;;11.60;;
26014;SDS011;13793;55.388;37.844;2023-04-24T04:14:34;17.50;;;11.23;;
26014;SDS011;13793;55.388;37.844;2023-04-24T04:17:04;20.03;;;11.37;;
26014;SDS011;13793;55.388;37.844;2023-04-24T04:19:36;18.93;;;10.27;;
26014;SDS011;13793;55.388;37.844;2023-04-24T04:22:07;15.47;;;10.03;;
26014;SDS011;13793;55.388;37.844;2023-04-24T04:24:42;16.03;;;9.93;;
26014;SDS011;13793;55.388;37.844;2023-04-24T04:27:13;16.83;;;10.00;;
26014;SDS011;13793;55.388;37.844;2023-04-24T04:29:49;16.70;;;9.93;;
26014;SDS011;13793;55.388;37.844;2023-04-24T04:32:21;18.07;;;9.95;;
26014;SDS011;13793;55.388;37.844;2023-04-24T04:34:51;15.55;;;9.75;;
26014;SDS011;13793;55.388;37.844;2023-04-24T04:37:22;16.05;;;9.10;;
26014;SDS011;13793;55.388;37.844;2023-04-24T04:39:55;13.90;;;8.80;;
26014;SDS011;13793;55.388;37.844;2023-04-24T04:42:28;18.45;;;9.45;;
26014;SDS011;13793;55.388;37.844;2023-04-24T04:45:01;17.05;;;9.90;;
26014;SDS011;13793;55.388;37.844;2023-04-24T04:47:37;13.45;;;8.88;;
26014;SDS011;13793;55.388;37.844;2023-04-24T04:50:08;14.65;;;8.55;;
26014;SDS011;13793;55.388;37.844;2023-04-24T04:52:42;14.45;;;8.33;;
26014;SDS011;13793;55.388;37.844;2023-04-24T04:55:14;14.68;;;9.25;;
26014;SDS011;13793;55.388;37.844;2023-04-24T04:57:50;13.13;;;7.10;;
26014;SDS011;13793;55.388;37.844;2023-04-24T05:00:21;9.75;;;6.70;;
26014;SDS011;13793;55.388;37.844;2023-04-24T05:02:53;8.18;;;6.67;;
26014;SDS011;13793;55.388;37.844;2023-04-24T05:05:24;9.08;;;6.20;;
26014;SDS011;13793;55.388;37.844;2023-04-24T05:07:55;11.48;;;6.10;;
26014;SDS011;13793;55.388;37.844;2023-04-24T05:10:26;10.85;;;5.80;;
26014;SDS011;13793;55.388;37.844;2023-04-24T05:12:57;8.58;;;5.20;;
26014;SDS011;13793;55.388;37.844;2023-04-24T05:15:28;5.83;;;5.05;;
26014;SDS011;13793;55.388;37.844;2023-04-24T05:17:59;11.48;;;5.25;;
26014;SDS011;13793;55.388;37.844;2023-04-24T05:20:30;10.50;;;5.33;;
26014;SDS011;13793;55.388;37.844;2023-04-24T05:23:00;7.87;;;4.90;;
26014;SDS011;13793;55.388;37.844;2023-04-24T05:25:31;8.10;;;5.10;;
26014;SDS011;13793;55.388;37.844;2023-04-24T05:28:05;6.75;;;4.90;;
26014;SDS011;13793;55.388;37.844;2023-04-24T05:30:36;6.28;;;4.65;;
26014;SDS011;13793;55.388;37.844;2023-04-24T05:33:07;8.23;;;4.83;;
26014;SDS011;13793;55.388;37.844;2023-04-24T05:35:38;8.60;;;5.17;;
26014;SDS011;13793;55.388;37.844;2023-04-24T05:38:12;6.00;;;4.97;;
26014;SDS011;13793;55.388;37.844;2023-04-24T05:40:45;7.53;;;4.53;;
26014;SDS011;13793;55.388;37.844;2023-04-24T05:43:16;7.47;;;4.75;;
26014;SDS011;13793;55.388;37.844;2023-04-24T05:45:47;6.25;;;4.45;;
26014;SDS011;13793;55.388;37.844;2023-04-24T05:48:19;8.53;;;4.80;;
26014;SDS011;13793;55.388;37.844;2023-04-24T05:50:51;7.40;;;4.90;;
26014;SDS011;13793;55.388;37.844;2023-04-24T05:53:21;5.83;;;4.45;;
26014;SDS011;13793;55.388;37.844;2023-04-24T05:55:52;6.53;;;4.58;;
26014;SDS011;13793;55.388;37.844;2023-04-24T05:58:23;5.75;;;4.60;;
26014;SDS011;13793;55.388;37.844;2023-04-24T06:00:54;8.75;;;4.85;;
26014;SDS011;13793;55.388;37.844;2023-04-24T06:03:26;6.45;;;4.28;;
26014;SDS011;13793;55.388;37.844;2023-04-24T06:05:57;6.33;;;4.60;;
26014;SDS011;13793;55.388;37.844;2023-04-24T06:08:27;7.95;;;4.40;;
26014;SDS011;13793;55.388;37.844;2023-04-24T06:10:58;5.55;;;4.03;;
26014;SDS011;13793;55.388;37.844;2023-04-24T06:13:30;5.55;;;4.35;;
26014;SDS011;13793;55.388;37.844;2023-04-24T06:16:17;6.25;;;3.98;;
26014;SDS011;13793;55.388;37.844;2023-04-24T06:18:50;5.30;;;3.85;;
26014;SDS011;13793;55.388;37.844;2023-04-24T06:21:21;9.00;;;3.90;;
26014;SDS011;13793;55.388;37.844;2023-04-24T06:23:52;5.37;;;4.22;;
26014;SDS011;13793;55.388;37.844;2023-04-24T06:26:24;4.97;;;3.75;;
26014;SDS011;13793;55.388;37.844;2023-04-24T06:28:55;7.95;;;4.20;;
26014;SDS011;13793;55.388;37.844;2023-04-24T06:31:27;4.92;;;3.80;;
26014;SDS011;13793;55.388;37.844;2023-04-24T06:33:58;6.08;;;4.17;;
26014;SDS011;13793;55.388;37.844;2023-04-24T06:36:31;6.37;;;4.20;;
26014;SDS011;13793;55.388;37.844;2023-04-24T06:39:03;9.48;;;6.12;;
26014;SDS011;13793;55.388;37.844;2023-04-24T06:41:37;7.60;;;3.92;;
26014;SDS011;13793;55.388;37.844;2023-04-24T06:44:10;7.83;;;4.40;;
26014;SDS011;13793;55.388;37.844;2023-04-24T06:46:40;6.25;;;3.50;;
26014;SDS011;13793;55.388;37.844;2023-04-24T06:49:11;6.25;;;3.37;;
26014;SDS011;13793;55.388;37.844;2023-04-24T06:51:43;7.00;;;3.90;;
26014;SDS011;13793;55.388;37.844;2023-04-24T10:28:28;4.60;;;3.30;;
26014;SDS011;13793;55.388;37.844;2023-04-24T10:31:11;6.75;;;4.37;;
26014;SDS011;13793;55.388;37.844;2023-04-24T10:33:55;6.33;;;3.30;;
26014;SDS011;13793;55.388;37.844;2023-04-24T10:36:36;6.87;;;3.42;;
26014;SDS011;13793;55.388;37.844;2023-04-24T10:39:20;5.33;;;3.10;;
26014;SDS011;13793;55.388;37.844;2023-04-24T10:41:56;4.00;;;2.98;;
26014;SDS011;13793;55.388;37.844;2023-04-24T10:44:39;6.67;;;2.90;;
26014;SDS011;13793;55.388;37.844;2023-04-24T10:47:20;4.47;;;2.98;;
26014;SDS011;13793;55.388;37.844;2023-04-24T10:49:59;3.35;;;2.80;;
26014;SDS011;13793;55.388;37.844;2023-04-24T10:52:47;6.25;;;3.50;;
26014;SDS011;13793;55.388;37.844;2023-04-24T10:55:40;4.25;;;2.77;;
26014;SDS011;13793;55.388;37.844;2023-04-24T10:58:24;4.45;;;2.85;;
26014;SDS011;13793;55.388;37.844;2023-04-24T11:01:10;6.92;;;3.70;;
26014;SDS011;13793;55.388;37.844;2023-04-24T11:04:00;5.35;;;2.83;;
26014;SDS011;13793;55.388;37.844;2023-04-24T11:09:28;6.05;;;2.80;;
26014;SDS011;13793;55.388;37.844;2023-04-24T11:12:06;4.60;;;3.22;;
26014;SDS011;13793;55.388;37.844;2023-04-24T11:17:41;3.50;;;2.83;;
26014;SDS011;13793;55.388;37.844;2023-04-24T11:20:24;5.53;;;3.10;;
26014;SDS011;13793;55.388;37.844;2023-04-24T11:23:11;3.80;;;2.80;;
26014;SDS011;13793;55.388;37.844;2023-04-24T11:26:09;4.28;;;2.60;;
26014;SDS011;13793;55.388;37.844;2023-04-24T11:28:53;3.58;;;2.52;;
26014;SDS011;13793;55.388;37.844;2023-04-24T11:31:38;4.47;;;2.80;;
26014;SDS011;13793;55.388;37.844;2023-04-24T11:34:24;3.10;;;2.60;;
26014;SDS011;13793;55.388;37.844;2023-04-24T11:37:05;5.67;;;2.87;;
26014;SDS011;13793;55.388;37.844;2023-04-24T11:39:51;4.22;;;2.60;;
26014;SDS011;13793;55.388;37.844;2023-04-24T11:42:42;5.58;;;3.60;;
26014;SDS011;13793;55.388;37.844;2023-04-24T11:45:31;4.03;;;3.15;;
26014;SDS011;13793;55.388;37.844;2023-04-24T11:48:12;3.75;;;2.40;;
26014;SDS011;13793;55.388;37.844;2023-04-24T11:50:50;7.33;;;5.92;;
26014;SDS011;13793;55.388;37.844;2023-04-24T11:53:33;5.47;;;4.17;;
26014;SDS011;13793;55.388;37.844;2023-04-24T11:56:16;3.12;;;2.83;;
26014;SDS011;13793;55.388;37.844;2023-04-24T11:58:57;3.40;;;2.92;;
26014;SDS011;13793;55.388;37.844;2023-04-24T12:01:42;6.50;;;4.80;;
26014;SDS011;13793;55.388;37.844;2023-04-24T12:04:18;5.35;;;2.60;;
26014;SDS011;13793;55.388;37.844;2023-04-24T12:07:03;11.03;;;6.62;;
26014;SDS011;13793;55.388;37.844;2023-04-24T12:09:49;6.70;;;4.92;;
26014;SDS011;13793;55.388;37.844;2023-04-24T12:12:41;4.90;;;3.47;;
26014;SDS011;13793;55.388;37.844;2023-04-24T12:15:26;5.33;;;3.10;;
26014;SDS011;13793;55.388;37.844;2023-04-24T12:18:06;4.15;;;3.00;;
26014;SDS011;13793;55.388;37.844;2023-04-24T12:20:49;10.68;;;5.42;;
26014;SDS011;13793;55.388;37.844;2023-04-24T12:23:37;5.78;;;3.50;;
26014;SDS011;13793;55.388;37.844;2023-04-24T12:26:19;3.83;;;2.55;;
26014;SDS011;13793;55.388;37.844;2023-04-24T12:29:04;3.85;;;2.80;;
26014;SDS011;13793;55.388;37.844;2023-04-24T12:31:40;4.20;;;2.50;;
26014;SDS011;13793;55.388;37.844;2023-04-24T12:34:23;5.53;;;2.35;;
26014;SDS011;13793;55.388;37.844;2023-04-24T12:37:13;6.20;;;3.10;;
26014;SDS011;13793;55.388;37.844;2023-04-24T12:40:05;6.50;;;2.83;;
26014;SDS011;13793;55.388;37.844;2023-04-24T12:42:48;3.90;;;2.92;;
26014;SDS011;13793;55.388;37.844;2023-04-24T12:45:27;6.03;;;2.95;;
26014;SDS011;13793;55.388;37.844;2023-04-24T12:48:14;3.67;;;2.80;;
26014;SDS011;13793;55.388;37.844;2023-04-24T12:50:58;5.22;;;2.75;;
26014;SDS011;13793;55.388;37.844;2023-04-24T12:53:38;3.85;;;2.83;;
26014;SDS011;13793;55.388;37.844;2023-04-24T12:56:22;5.08;;;2.60;;
26014;SDS011;13793;55.388;37.844;2023-04-24T12:59:04;4.70;;;2.50;;
26014;SDS011;13793;55.388;37.844;2023-04-24T13:01:50;5.08;;;2.65;;
26014;SDS011;13793;55.388;37.844;2023-04-24T13:04:25;4.47;;;2.52;;
26014;SDS011;13793;55.388;37.844;2023-04-24T13:07:13;3.37;;;2.50;;
26014;SDS011;13793;55.388;37.844;2023-04-24T13:09:56;6.28;;;2.77;;
26014;SDS011;13793;55.388;37.844;2023-04-24T13:12:44;4.03;;;2.60;;
26014;SDS011;13793;55.388;37.844;2023-04-24T13:15:25;4.25;;;2.77;;
26014;SDS011;13793;55.388;37.844;2023-04-24T13:18:06;4.10;;;2.95;;
26014;SDS011;13793;55.388;37.844;2023-04-24T13:20:46;4.62;;;3.10;;
26014;SDS011;13793;55.388;37.844;2023-04-24T13:23:31;4.15;;;2.80;;
26014;SDS011;13793;55.388;37.844;2023-04-24T13:26:11;3.90;;;2.87;;
26014;SDS011;13793;55.388;37.844;2023-04-24T13:28:46;4.70;;;3.22;;
26014;SDS011;13793;55.388;37.844;2023-04-24T13:31:26;6.05;;;2.83;;
26014;SDS011;13793;55.388;37.844;2023-04-24T13:34:10;4.80;;;2.70;;
26014;SDS011;13793;55.388;37.844;2023-04-24T13:36:57;4.53;;;3.20;;
26014;SDS011;13793;55.388;37.844;2023-04-24T13:39:42;4.95;;;3.10;;
26014;SDS011;13793;55.388;37.844;2023-04-24T13:42:22;4.83;;;3.05;;
26014;SDS011;13793;55.388;37.844;2023-04-24T13:45:09;4.53;;;2.90;;
26014;SDS011;13793;55.388;37.844;2023-04-24T13:47:49;4.55;;;3.80;;
26014;SDS011;13793;55.388;37.844;2023-04-24T13:50:27;7.03;;;3.30;;
26014;SDS011;13793;55.388;37.844;2023-04-24T13:53:05;5.25;;;2.95;;
26014;SDS011;13793;55.388;37.844;2023-04-24T13:55:50;7.25;;;3.12;;
26014;SDS011;13793;55.388;37.844;2023-04-24T13:58:28;4.12;;;2.92;;
26014;SDS011;13793;55.388;37.844;2023-04-24T14:01:08;4.97;;;2.75;;
26014;SDS011;13793;55.388;37.844;2023-04-24T14:03:51;4.55;;;3.08;;
26014;SDS011;13793;55.388;37.844;2023-04-24T14:06:42;4.40;;;3.40;;
26014;SDS011;13793;55.388;37.844;2023-04-24T14:09:33;5.60;;;3.20;;
26014;SDS011;13793;55.388;37.844;2023-04-24T14:12:10;5.70;;;3.35;;
26014;SDS011;13793;55.388;37.844;2023-04-24T14:14:56;5.75;;;3.22;;
26014;SDS011;13793;55.388;37.844;2023-04-24T14:17:37;5.25;;;3.52;;
26014;SDS011;13793;55.388;37.844;2023-04-24T14:20:14;6.20;;;3.47;;
26014;SDS011;13793;55.388;37.844;2023-04-24T14:22:58;7.67;;;3.50;;
26014;SDS011;13793;55.388;37.844;2023-04-24T14:25:43;4.62;;;3.15;;
26014;SDS011;13793;55.388;37.844;2023-04-24T14:28:18;6.12;;;4.08;;
26014;SDS011;13793;55.388;37.844;2023-04-24T14:30:59;7.65;;;4.10;;
26014;SDS011;13793;55.388;37.844;2023-04-24T14:33:46;6.17;;;4.00;;
26014;SDS011;13793;55.388;37.844;2023-04-24T14:36:22;10.18;;;5.00;;
26014;SDS011;13793;55.388;37.844;2023-04-24T14:39:03;8.15;;;5.10;;
26014;SDS011;13793;55.388;37.844;2023-04-24T14:41:45;8.98;;;5.90;;
26014;SDS011;13793;55.388;37.844;2023-04-24T14:44:26;8.30;;;6.40;;
26014;SDS011;13793;55.388;37.844;2023-04-24T14:47:07;10.82;;;6.30;;
26014;SDS011;13793;55.388;37.844;2023-04-24T14:49:41;9.13;;;6.20;;
26014;SDS011;13793;55.388;37.844;2023-04-24T14:52:16;11.15;;;5.33;;
26014;SDS011;13793;55.388;37.844;2023-04-24T14:55:04;9.53;;;5.00;;
26014;SDS011;13793;55.388;37.844;2023-04-24T14:57:44;9.50;;;4.62;;
26014;SDS011;13793;55.388;37.844;2023-04-24T15:00:25;7.28;;;4.12;;
26014;SDS011;13793;55.388;37.844;2023-04-24T15:03:14;6.55;;;4.40;;
26014;SDS011;13793;55.388;37.844;2023-04-24T15:05:49;6.92;;;4.40;;
26014;SDS011;13793;55.388;37.844;2023-04-24T15:08:36;8.38;;;4.35;;
26014;SDS011;13793;55.388;37.844;2023-04-24T15:11:10;6.55;;;4.10;;
26014;SDS011;13793;55.388;37.844;2023-04-24T15:13:50;6.55;;;4.15;;
26014;SDS011;13793;55.388;37.844;2023-04-24T15:16:31;7.53;;;3.85;;
26014;SDS011;13793;55.388;37.844;2023-04-24T15:19:13;7.28;;;4.62;;
26014;SDS011;13793;55.388;37.844;2023-04-24T15:21:50;7.53;;;4.40;;
26014;SDS011;13793;55.388;37.844;2023-04-24T15:24:28;6.05;;;4.03;;
26014;SDS011;13793;55.388;37.844;2023-04-24T15:27:18;10.45;;;4.37;;
26014;SDS011;13793;55.388;37.844;2023-04-24T15:30:06;6.90;;;4.10;;
26014;SDS011;13793;55.388;37.844;2023-04-24T15:32:44;6.58;;;3.65;;
26014;SDS011;13793;55.388;37.844;2023-04-24T15:35:30;7.58;;;4.47;;
26014;SDS011;13793;55.388;37.844;2023-04-24T15:38:07;8.85;;;4.85;;
26014;SDS011;13793;55.388;37.844;2023-04-24T15:40:57;9.08;;;4.85;;
26014;SDS011;13793;55.388;37.844;2023-04-24T15:43:39;8.25;;;4.42;;
26014;SDS011;13793;55.388;37.844;2023-04-24T15:46:28;6.35;;;3.70;;
26014;SDS011;13793;55.388;37.844;2023-04-24T15:49:06;4.87;;;3.95;;
26014;SDS011;13793;55.388;37.844;2023-04-24T15:51:59;9.63;;;3.80;;
26014;SDS011;13793;55.388;37.844;2023-04-24T15:54:36;6.87;;;4.00;;
26014;SDS011;13793;55.388;37.844;2023-04-24T15:57:22;8.10;;;4.10;;
26014;SDS011;13793;55.388;37.844;2023-04-24T16:00:13;10.68;;;4.17;;
26014;SDS011;13793;55.388;37.844;2023-04-24T16:02:58;5.47;;;3.72;;
26014;SDS011;13793;55.388;37.844;2023-04-24T16:05:41;6.12;;;3.65;;
26014;SDS011;13793;55.388;37.844;2023-04-24T16:08:31;6.58;;;3.80;;
26014;SDS011;13793;55.388;37.844;2023-04-24T16:11:18;9.80;;;5.40;;
26014;SDS011;13793;55.388;37.844;2023-04-24T16:13:56;14.87;;;9.08;;
26014;SDS011;13793;55.388;37.844;2023-04-24T16:16:43;11.22;;;6.42;;
26014;SDS011;13793;55.388;37.844;2023-04-24T16:19:31;9.13;;;4.67;;
26014;SDS011;13793;55.388;37.844;2023-04-24T16:22:24;10.88;;;8.33;;
26014;SDS011;13793;55.388;37.844;2023-04-24T16:25:13;12.93;;;7.75;;
26014;SDS011;13793;55.388;37.844;2023-04-24T16:27:50;7.40;;;5.97;;
26014;SDS011;13793;55.388;37.844;2023-04-24T16:30:38;11.15;;;5.60;;
26014;SDS011;13793;55.388;37.844;2023-04-24T16:33:21;13.03;;;6.80;;
26014;SDS011;13793;55.388;37.844;2023-04-24T16:36:08;9.93;;;6.83;;
26014;SDS011;13793;55.388;37.844;2023-04-24T16:38:54;9.38;;;6.15;;
26014;SDS011;13793;55.388;37.844;2023-04-24T16:41:35;8.33;;;5.60;;
26014;SDS011;13793;55.388;37.844;2023-04-24T16:44:20;9.13;;;5.78;;
26014;SDS011;13793;55.388;37.844;2023-04-24T16:47:01;9.98;;;5.53;;
26014;SDS011;13793;55.388;37.844;2023-04-24T16:49:39;11.20;;;5.12;;
26014;SDS011;13793;55.388;37.844;2023-04-24T16:52:19;11.05;;;5.45;;
26014;SDS011;13793;55.388;37.844;2023-04-24T16:55:08;9.35;;;5.33;;
26014;SDS011;13793;55.388;37.844;2023-04-24T16:57:51;8.15;;;5.12;;
26014;SDS011;13793;55.388;37.844;2023-04-24T17:00:35;9.23;;;5.45;;
26014;SDS011;13793;55.388;37.844;2023-04-24T17:03:16;8.23;;;5.53;;
26014;SDS011;13793;55.388;37.844;2023-04-24T17:06:10;11.75;;;7.37;;
26014;SDS011;13793;55.388;37.844;2023-04-24T17:08:58;11.53;;;6.10;;
26014;SDS011;13793;55.388;37.844;2023-04-24T17:11:43;9.28;;;5.83;;
26014;SDS011;13793;55.388;37.844;2023-04-24T17:14:23;12.30;;;6.30;;
26014;SDS011;13793;55.388;37.844;2023-04-24T17:19:41;16.02;;;7.70;;
26014;SDS011;13793;55.388;37.844;2023-04-24T17:22:18;19.07;;;9.70;;
26014;SDS011;13793;55.388;37.844;2023-04-24T17:25:04;28.45;;;15.88;;
26014;SDS011;13793;55.388;37.844;2023-04-24T17:27:41;24.35;;;15.98;;
26014;SDS011;13793;55.388;37.844;2023-04-24T17:30:27;26.20;;;17.42;;
26014;SDS011;13793;55.388;37.844;2023-04-24T17:33:12;27.07;;;17.10;;
26014;SDS011;13793;55.388;37.844;2023-04-24T17:35:56;28.47;;;17.12;;
26014;SDS011;13793;55.388;37.844;2023-04-24T17:38:40;31.35;;;18.45;;
26014;SDS011;13793;55.388;37.844;2023-04-24T17:41:26;26.75;;;17.35;;
26014;SDS011;13793;55.388;37.844;2023-04-24T17:44:13;27.90;;;17.15;;
26014;SDS011;13793;55.388;37.844;2023-04-24T17:46:58;22.15;;;17.23;;
26014;SDS011;13793;55.388;37.844;2023-04-24T17:49:42;24.43;;;15.35;;
26014;SDS011;13793;55.388;37.844;2023-04-24T17:52:22;21.95;;;14.03;;
26014;SDS011;13793;55.388;37.844;2023-04-24T17:55:11;19.77;;;13.45;;
26014;SDS011;13793;55.388;37.844;2023-04-24T17:57:53;24.47;;;16.93;;
26014;SDS011;13793;55.388;37.844;2023-04-24T18:00:41;27.05;;;17.60;;
26014;SDS011;13793;55.388;37.844;2023-04-24T18:03:28;27.75;;;16.32;;
26014;SDS011;13793;55.388;37.844;2023-04-24T18:06:13;22.25;;;15.55;;
26014;SDS011;13793;55.388;37.844;2023-04-24T18:08:54;29.85;;;16.42;;
26014;SDS011;13793;55.388;37.844;2023-04-24T18:11:33;34.17;;;19.43;;
26014;SDS011;13793;55.388;37.844;2023-04-24T18:14:18;82.07;;;42.63;;
26014;SDS011;13793;55.388;37.844;2023-04-24T18:16:59;88.80;;;45.83;;
26014;SDS011;13793;55.388;37.844;2023-04-24T18:19:49;71.62;;;39.10;;
26014;SDS011;13793;55.388;37.844;2023-04-24T18:22:28;83.80;;;46.63;;
26014;SDS011;13793;55.388;37.844;2023-04-24T18:25:14;84.13;;;47.70;;
26014;SDS011;13793;55.388;37.844;2023-04-24T18:27:57;75.43;;;43.60;;
26014;SDS011;13793;55.388;37.844;2023-04-24T18:30:37;81.17;;;45.97;;
26014;SDS011;13793;55.388;37.844;2023-04-24T18:33:18;87.80;;;50.07;;
26014;SDS011;13793;55.388;37.844;2023-04-24T18:35:57;79.47;;;46.83;;
26014;SDS011;13793;55.388;37.844;2023-04-24T18:38:39;78.47;;;43.77;;
26014;SDS011;13793;55.388;37.844;2023-04-24T18:41:23;79.83;;;44.60;;
26014;SDS011;13793;55.388;37.844;2023-04-24T18:44:07;74.03;;;43.77;;
26014;SDS011;13793;55.388;37.844;2023-04-24T18:46:43;56.23;;;34.97;;
26014;SDS011;13793;55.388;37.844;2023-04-24T18:49:24;55.83;;;35.43;;
26014;SDS011;13793;55.388;37.844;2023-04-24T18:52:05;55.80;;;32.83;;
26014;SDS011;13793;55.388;37.844;2023-04-24T18:54:47;56.57;;;31.20;;
26014;SDS011;13793;55.388;37.844;2023-04-24T18:57:33;48.47;;;31.57;;
26014;SDS011;13793;55.388;37.844;2023-04-24T19:00:14;53.40;;;31.50;;
26014;SDS011;13793;55.388;37.844;2023-04-24T19:02:54;46.40;;;29.53;;
26014;SDS011;13793;55.388;37.844;2023-04-24T19:05:35;44.50;;;27.60;;
26014;SDS011;13793;55.388;37.844;2023-04-24T19:08:18;40.03;;;24.20;;